sensor_id;sensor_type;location;lat;lon;timestamp;P1;durP1;ratioP1;P2;durP2;ratioP2
21360;SDS011;10839;43.206;23.550;2023-12-07T00:01:51;55.88;;;21.27;;
21360;SDS011;10839;43.206;23.550;2023-12-07T00:04:17;60.67;;;22.20;;
21360;SDS011;10839;43.206;23.550;2023-12-07T00:06:42;52.53;;;21.45;;
21360;SDS011;10839;43.206;23.550;2023-12-07T00:09:08;54.22;;;21.08;;
21360;SDS011;10839;43.206;23.550;2023-12-07T00:11:34;53.33;;;21.20;;
21360;SDS011;10839;43.206;23.550;2023-12-07T00:14:00;53.75;;;21.02;;
21360;SDS011;10839;43.206;23.550;2023-12-07T00:16:25;53.55;;;20.80;;
21360;SDS011;10839;43.206;23.550;2023-12-07T00:18:51;53.17;;;21.67;;
21360;SDS011;10839;43.206;23.550;2023-12-07T00:21:17;57.70;;;22.20;;
21360;SDS011;10839;43.206;23.550;2023-12-07T00:23:43;53.25;;;21.42;;
21360;SDS011;10839;43.206;23.550;2023-12-07T00:26:09;56.50;;;22.52;;
21360;SDS011;10839;43.206;23.550;2023-12-07T00:28:36;53.20;;;22.60;;
21360;SDS011;10839;43.206;23.550;2023-12-07T00:31:01;55.33;;;21.73;;
21360;SDS011;10839;43.206;23.550;2023-12-07T00:33:27;58.03;;;21.70;;
21360;SDS011;10839;43.206;23.550;2023-12-07T00:35:53;55.60;;;22.73;;
21360;SDS011;10839;43.206;23.550;2023-12-07T00:38:19;55.25;;;21.15;;
21360;SDS011;10839;43.206;23.550;2023-12-07T00:40:46;55.20;;;21.60;;
21360;SDS011;10839;43.206;23.550;2023-12-07T00:43:12;57.05;;;21.90;;
21360;SDS011;10839;43.206;23.550;2023-12-07T00:45:38;55.50;;;21.23;;
21360;SDS011;10839;43.206;23.550;2023-12-07T00:48:04;52.55;;;21.98;;
21360;SDS011;10839;43.206;23.550;2023-12-07T00:50:30;59.08;;;23.83;;
21360;SDS011;10839;43.206;23.550;2023-12-07T00:52:56;57.55;;;23.58;;
21360;SDS011;10839;43.206;23.550;2023-12-07T00:55:22;44.47;;;19.90;;
21360;SDS011;10839;43.206;23.550;2023-12-07T00:57:48;45.63;;;19.75;;
21360;SDS011;10839;43.206;23.550;2023-12-07T01:00:13;43.30;;;19.30;;
21360;SDS011;10839;43.206;23.550;2023-12-07T01:02:39;48.20;;;19.90;;
21360;SDS011;10839;43.206;23.550;2023-12-07T01:05:05;43.53;;;19.35;;
21360;SDS011;10839;43.206;23.550;2023-12-07T01:07:31;40.20;;;18.23;;
21360;SDS011;10839;43.206;23.550;2023-12-07T01:09:57;42.45;;;17.83;;
21360;SDS011;10839;43.206;23.550;2023-12-07T01:12:22;41.60;;;18.13;;
21360;SDS011;10839;43.206;23.550;2023-12-07T01:14:49;39.78;;;17.15;;
21360;SDS011;10839;43.206;23.550;2023-12-07T01:17:15;43.10;;;18.38;;
21360;SDS011;10839;43.206;23.550;2023-12-07T01:19:40;41.03;;;17.55;;
21360;SDS011;10839;43.206;23.550;2023-12-07T01:22:06;38.45;;;17.00;;
21360;SDS011;10839;43.206;23.550;2023-12-07T01:24:32;44.95;;;17.30;;
21360;SDS011;10839;43.206;23.550;2023-12-07T01:26:57;44.70;;;18.80;;
21360;SDS011;10839;43.206;23.550;2023-12-07T01:29:23;44.08;;;17.70;;
21360;SDS011;10839;43.206;23.550;2023-12-07T01:31:49;36.88;;;16.52;;
21360;SDS011;10839;43.206;23.550;2023-12-07T01:34:16;37.28;;;16.85;;
21360;SDS011;10839;43.206;23.550;2023-12-07T01:36:43;36.30;;;15.45;;
21360;SDS011;10839;43.206;23.550;2023-12-07T01:39:09;35.60;;;16.08;;
21360;SDS011;10839;43.206;23.550;2023-12-07T01:41:39;34.53;;;15.43;;
21360;SDS011;10839;43.206;23.550;2023-12-07T01:44:05;32.17;;;15.23;;
21360;SDS011;10839;43.206;23.550;2023-12-07T01:46:31;33.83;;;14.15;;
21360;SDS011;10839;43.206;23.550;2023-12-07T01:48:58;31.17;;;14.52;;
21360;SDS011;10839;43.206;23.550;2023-12-07T01:51:25;34.38;;;15.25;;
21360;SDS011;10839;43.206;23.550;2023-12-07T01:53:52;33.83;;;15.35;;
21360;SDS011;10839;43.206;23.550;2023-12-07T01:56:19;38.30;;;16.35;;
21360;SDS011;10839;43.206;23.550;2023-12-07T01:58:45;34.42;;;16.00;;
21360;SDS011;10839;43.206;23.550;2023-12-07T02:01:11;31.27;;;15.13;;
21360;SDS011;10839;43.206;23.550;2023-12-07T02:03:40;33.20;;;15.05;;
21360;SDS011;10839;43.206;23.550;2023-12-07T02:06:06;33.55;;;15.25;;
21360;SDS011;10839;43.206;23.550;2023-12-07T02:08:34;36.45;;;14.95;;
21360;SDS011;10839;43.206;23.550;2023-12-07T02:11:00;36.72;;;16.05;;
21360;SDS011;10839;43.206;23.550;2023-12-07T02:13:27;37.28;;;15.98;;
21360;SDS011;10839;43.206;23.550;2023-12-07T02:15:53;37.92;;;16.90;;
21360;SDS011;10839;43.206;23.550;2023-12-07T02:18:40;40.38;;;17.17;;
21360;SDS011;10839;43.206;23.550;2023-12-07T02:21:18;38.40;;;16.48;;
21360;SDS011;10839;43.206;23.550;2023-12-07T02:23:53;36.33;;;15.07;;
21360;SDS011;10839;43.206;23.550;2023-12-07T02:26:20;33.92;;;15.00;;
21360;SDS011;10839;43.206;23.550;2023-12-07T02:28:50;34.67;;;15.52;;
21360;SDS011;10839;43.206;23.550;2023-12-07T02:31:15;38.53;;;16.25;;
21360;SDS011;10839;43.206;23.550;2023-12-07T02:33:41;37.95;;;17.05;;
21360;SDS011;10839;43.206;23.550;2023-12-07T02:36:07;47.35;;;16.70;;
21360;SDS011;10839;43.206;23.550;2023-12-07T02:38:33;41.55;;;15.95;;
21360;SDS011;10839;43.206;23.550;2023-12-07T02:41:00;37.72;;;16.15;;
21360;SDS011;10839;43.206;23.550;2023-12-07T02:43:26;44.25;;;16.70;;
21360;SDS011;10839;43.206;23.550;2023-12-07T02:45:52;44.78;;;15.75;;
21360;SDS011;10839;43.206;23.550;2023-12-07T02:48:20;41.47;;;16.95;;
21360;SDS011;10839;43.206;23.550;2023-12-07T02:50:46;49.90;;;16.25;;
21360;SDS011;10839;43.206;23.550;2023-12-07T02:53:12;45.67;;;18.30;;
21360;SDS011;10839;43.206;23.550;2023-12-07T02:55:38;51.53;;;19.02;;
21360;SDS011;10839;43.206;23.550;2023-12-07T02:58:04;52.70;;;19.08;;
21360;SDS011;10839;43.206;23.550;2023-12-07T03:00:29;48.42;;;19.13;;
21360;SDS011;10839;43.206;23.550;2023-12-07T03:02:55;44.10;;;16.83;;
21360;SDS011;10839;43.206;23.550;2023-12-07T03:05:21;40.50;;;16.98;;
21360;SDS011;10839;43.206;23.550;2023-12-07T03:07:48;50.15;;;17.90;;
21360;SDS011;10839;43.206;23.550;2023-12-07T03:10:14;44.50;;;17.55;;
21360;SDS011;10839;43.206;23.550;2023-12-07T03:12:40;122.80;;;49.78;;
21360;SDS011;10839;43.206;23.550;2023-12-07T03:15:05;231.88;;;100.70;;
21360;SDS011;10839;43.206;23.550;2023-12-07T03:17:31;77.35;;;31.52;;
21360;SDS011;10839;43.206;23.550;2023-12-07T03:19:57;53.85;;;23.33;;
21360;SDS011;10839;43.206;23.550;2023-12-07T03:22:23;51.78;;;20.95;;
21360;SDS011;10839;43.206;23.550;2023-12-07T03:24:50;43.40;;;17.73;;
21360;SDS011;10839;43.206;23.550;2023-12-07T03:27:17;32.97;;;15.18;;
21360;SDS011;10839;43.206;23.550;2023-12-07T03:29:43;33.60;;;14.68;;
21360;SDS011;10839;43.206;23.550;2023-12-07T03:32:09;35.17;;;16.17;;
21360;SDS011;10839;43.206;23.550;2023-12-07T03:34:35;63.20;;;28.13;;
21360;SDS011;10839;43.206;23.550;2023-12-07T03:37:01;192.13;;;84.13;;
21360;SDS011;10839;43.206;23.550;2023-12-07T03:39:28;49.13;;;23.77;;
21360;SDS011;10839;43.206;23.550;2023-12-07T03:41:55;49.13;;;23.60;;
21360;SDS011;10839;43.206;23.550;2023-12-07T03:44:20;46.50;;;21.17;;
21360;SDS011;10839;43.206;23.550;2023-12-07T03:46:46;45.88;;;22.23;;
21360;SDS011;10839;43.206;23.550;2023-12-07T03:49:12;44.95;;;19.67;;
21360;SDS011;10839;43.206;23.550;2023-12-07T03:51:38;34.88;;;16.70;;
21360;SDS011;10839;43.206;23.550;2023-12-07T03:54:03;42.63;;;17.48;;
21360;SDS011;10839;43.206;23.550;2023-12-07T03:56:31;43.20;;;18.77;;
21360;SDS011;10839;43.206;23.550;2023-12-07T03:58:58;42.67;;;17.92;;
21360;SDS011;10839;43.206;23.550;2023-12-07T04:01:24;42.88;;;17.83;;
21360;SDS011;10839;43.206;23.550;2023-12-07T04:03:55;43.20;;;18.00;;
21360;SDS011;10839;43.206;23.550;2023-12-07T04:06:23;47.33;;;18.73;;
21360;SDS011;10839;43.206;23.550;2023-12-07T04:08:49;39.60;;;16.50;;
21360;SDS011;10839;43.206;23.550;2023-12-07T04:11:15;47.17;;;19.67;;
21360;SDS011;10839;43.206;23.550;2023-12-07T04:13:42;236.25;;;99.47;;
21360;SDS011;10839;43.206;23.550;2023-12-07T04:16:09;176.13;;;74.55;;
21360;SDS011;10839;43.206;23.550;2023-12-07T04:18:35;99.95;;;44.65;;
21360;SDS011;10839;43.206;23.550;2023-12-07T04:21:02;57.95;;;25.40;;
21360;SDS011;10839;43.206;23.550;2023-12-07T04:23:28;66.50;;;29.83;;
21360;SDS011;10839;43.206;23.550;2023-12-07T04:25:54;63.10;;;28.35;;
21360;SDS011;10839;43.206;23.550;2023-12-07T04:28:20;56.88;;;24.70;;
21360;SDS011;10839;43.206;23.550;2023-12-07T04:30:45;45.90;;;21.50;;
21360;SDS011;10839;43.206;23.550;2023-12-07T04:33:11;47.45;;;20.17;;
21360;SDS011;10839;43.206;23.550;2023-12-07T04:35:37;48.92;;;20.02;;
21360;SDS011;10839;43.206;23.550;2023-12-07T04:38:03;46.88;;;18.83;;
21360;SDS011;10839;43.206;23.550;2023-12-07T04:40:29;44.90;;;18.08;;
21360;SDS011;10839;43.206;23.550;2023-12-07T04:42:55;42.85;;;17.98;;
21360;SDS011;10839;43.206;23.550;2023-12-07T04:45:21;42.58;;;18.27;;
21360;SDS011;10839;43.206;23.550;2023-12-07T04:47:47;47.03;;;20.13;;
21360;SDS011;10839;43.206;23.550;2023-12-07T04:50:13;47.15;;;19.63;;
21360;SDS011;10839;43.206;23.550;2023-12-07T04:52:40;39.42;;;17.27;;
21360;SDS011;10839;43.206;23.550;2023-12-07T04:55:06;44.47;;;18.08;;
21360;SDS011;10839;43.206;23.550;2023-12-07T04:57:33;37.53;;;17.52;;
21360;SDS011;10839;43.206;23.550;2023-12-07T04:59:59;81.35;;;34.88;;
21360;SDS011;10839;43.206;23.550;2023-12-07T05:02:25;248.15;;;100.90;;
21360;SDS011;10839;43.206;23.550;2023-12-07T05:04:53;161.55;;;73.20;;
21360;SDS011;10839;43.206;23.550;2023-12-07T05:07:19;99.32;;;42.75;;
21360;SDS011;10839;43.206;23.550;2023-12-07T05:09:45;69.95;;;32.47;;
21360;SDS011;10839;43.206;23.550;2023-12-07T05:12:11;54.17;;;22.95;;
21360;SDS011;10839;43.206;23.550;2023-12-07T05:14:36;51.05;;;20.77;;
21360;SDS011;10839;43.206;23.550;2023-12-07T05:17:02;44.17;;;19.95;;
21360;SDS011;10839;43.206;23.550;2023-12-07T05:19:29;43.22;;;20.23;;
21360;SDS011;10839;43.206;23.550;2023-12-07T05:21:54;40.10;;;19.13;;
21360;SDS011;10839;43.206;23.550;2023-12-07T05:24:20;44.60;;;22.33;;
21360;SDS011;10839;43.206;23.550;2023-12-07T05:26:46;40.83;;;20.10;;
21360;SDS011;10839;43.206;23.550;2023-12-07T05:29:12;40.65;;;20.05;;
21360;SDS011;10839;43.206;23.550;2023-12-07T05:31:39;71.53;;;32.00;;
21360;SDS011;10839;43.206;23.550;2023-12-07T05:34:05;83.47;;;37.00;;
21360;SDS011;10839;43.206;23.550;2023-12-07T05:36:31;77.10;;;35.55;;
21360;SDS011;10839;43.206;23.550;2023-12-07T05:38:58;58.20;;;26.70;;
21360;SDS011;10839;43.206;23.550;2023-12-07T05:41:24;49.20;;;23.65;;
21360;SDS011;10839;43.206;23.550;2023-12-07T05:43:53;51.03;;;23.23;;
21360;SDS011;10839;43.206;23.550;2023-12-07T05:46:19;54.55;;;24.90;;
21360;SDS011;10839;43.206;23.550;2023-12-07T05:48:45;52.42;;;24.17;;
21360;SDS011;10839;43.206;23.550;2023-12-07T05:51:12;54.15;;;26.38;;
21360;SDS011;10839;43.206;23.550;2023-12-07T05:53:40;52.67;;;24.83;;
21360;SDS011;10839;43.206;23.550;2023-12-07T05:56:06;58.65;;;29.02;;
21360;SDS011;10839;43.206;23.550;2023-12-07T05:58:32;74.00;;;37.65;;
21360;SDS011;10839;43.206;23.550;2023-12-07T06:00:58;83.78;;;40.28;;
21360;SDS011;10839;43.206;23.550;2023-12-07T06:03:25;82.13;;;39.95;;
21360;SDS011;10839;43.206;23.550;2023-12-07T06:05:51;75.45;;;36.50;;
21360;SDS011;10839;43.206;23.550;2023-12-07T06:08:17;62.40;;;29.75;;
21360;SDS011;10839;43.206;23.550;2023-12-07T06:10:43;49.90;;;23.27;;
21360;SDS011;10839;43.206;23.550;2023-12-07T06:13:09;52.45;;;23.30;;
21360;SDS011;10839;43.206;23.550;2023-12-07T06:15:35;49.08;;;23.30;;
21360;SDS011;10839;43.206;23.550;2023-12-07T06:18:01;44.50;;;22.08;;
21360;SDS011;10839;43.206;23.550;2023-12-07T06:20:28;44.70;;;21.30;;
21360;SDS011;10839;43.206;23.550;2023-12-07T06:22:54;44.40;;;21.20;;
21360;SDS011;10839;43.206;23.550;2023-12-07T06:25:20;47.08;;;22.58;;
21360;SDS011;10839;43.206;23.550;2023-12-07T06:27:46;47.25;;;23.95;;
21360;SDS011;10839;43.206;23.550;2023-12-07T06:30:12;47.20;;;23.55;;
21360;SDS011;10839;43.206;23.550;2023-12-07T06:32:38;71.10;;;33.25;;
21360;SDS011;10839;43.206;23.550;2023-12-07T06:35:04;71.60;;;33.70;;
21360;SDS011;10839;43.206;23.550;2023-12-07T06:37:31;64.93;;;30.13;;
21360;SDS011;10839;43.206;23.550;2023-12-07T06:39:57;55.03;;;28.75;;
21360;SDS011;10839;43.206;23.550;2023-12-07T06:42:24;59.63;;;30.77;;
21360;SDS011;10839;43.206;23.550;2023-12-07T06:44:50;47.63;;;23.75;;
21360;SDS011;10839;43.206;23.550;2023-12-07T06:47:16;42.33;;;20.88;;
21360;SDS011;10839;43.206;23.550;2023-12-07T06:49:43;45.55;;;23.45;;
21360;SDS011;10839;43.206;23.550;2023-12-07T06:52:11;44.28;;;22.95;;
21360;SDS011;10839;43.206;23.550;2023-12-07T06:54:37;45.97;;;22.75;;
21360;SDS011;10839;43.206;23.550;2023-12-07T06:57:04;37.67;;;21.35;;
21360;SDS011;10839;43.206;23.550;2023-12-07T06:59:32;47.80;;;25.00;;
21360;SDS011;10839;43.206;23.550;2023-12-07T07:01:58;45.05;;;24.15;;
21360;SDS011;10839;43.206;23.550;2023-12-07T07:04:24;44.40;;;26.08;;
21360;SDS011;10839;43.206;23.550;2023-12-07T07:06:50;42.33;;;24.35;;
21360;SDS011;10839;43.206;23.550;2023-12-07T07:09:17;39.92;;;23.88;;
21360;SDS011;10839;43.206;23.550;2023-12-07T07:11:47;42.20;;;23.58;;
21360;SDS011;10839;43.206;23.550;2023-12-07T07:14:13;40.75;;;22.77;;
21360;SDS011;10839;43.206;23.550;2023-12-07T07:16:39;43.03;;;26.05;;
21360;SDS011;10839;43.206;23.550;2023-12-07T07:19:05;38.15;;;22.85;;
21360;SDS011;10839;43.206;23.550;2023-12-07T07:21:31;36.90;;;21.33;;
21360;SDS011;10839;43.206;23.550;2023-12-07T07:23:57;39.22;;;22.77;;
21360;SDS011;10839;43.206;23.550;2023-12-07T07:26:23;38.25;;;21.85;;
21360;SDS011;10839;43.206;23.550;2023-12-07T07:28:50;40.53;;;22.02;;
21360;SDS011;10839;43.206;23.550;2023-12-07T07:31:18;41.75;;;23.00;;
21360;SDS011;10839;43.206;23.550;2023-12-07T07:33:44;40.63;;;22.73;;
21360;SDS011;10839;43.206;23.550;2023-12-07T07:36:15;38.10;;;22.25;;
21360;SDS011;10839;43.206;23.550;2023-12-07T07:38:41;43.33;;;22.98;;
21360;SDS011;10839;43.206;23.550;2023-12-07T07:41:09;39.78;;;22.58;;
21360;SDS011;10839;43.206;23.550;2023-12-07T07:43:36;43.83;;;24.30;;
21360;SDS011;10839;43.206;23.550;2023-12-07T07:46:05;35.90;;;21.10;;
21360;SDS011;10839;43.206;23.550;2023-12-07T07:48:32;37.20;;;22.20;;
21360;SDS011;10839;43.206;23.550;2023-12-07T07:50:57;43.67;;;22.67;;
21360;SDS011;10839;43.206;23.550;2023-12-07T07:53:24;43.13;;;23.08;;
21360;SDS011;10839;43.206;23.550;2023-12-07T07:55:49;47.38;;;25.73;;
21360;SDS011;10839;43.206;23.550;2023-12-07T07:58:15;46.35;;;24.70;;
21360;SDS011;10839;43.206;23.550;2023-12-07T08:00:41;41.72;;;23.65;;
21360;SDS011;10839;43.206;23.550;2023-12-07T08:03:07;45.53;;;25.10;;
21360;SDS011;10839;43.206;23.550;2023-12-07T08:05:34;50.45;;;28.15;;
21360;SDS011;10839;43.206;23.550;2023-12-07T08:07:59;47.67;;;26.35;;
21360;SDS011;10839;43.206;23.550;2023-12-07T08:10:26;47.63;;;27.98;;
21360;SDS011;10839;43.206;23.550;2023-12-07T08:12:52;50.58;;;28.48;;
21360;SDS011;10839;43.206;23.550;2023-12-07T08:15:18;44.45;;;25.35;;
21360;SDS011;10839;43.206;23.550;2023-12-07T08:17:43;46.88;;;24.90;;
21360;SDS011;10839;43.206;23.550;2023-12-07T08:20:09;45.70;;;24.40;;
21360;SDS011;10839;43.206;23.550;2023-12-07T08:22:36;44.90;;;23.77;;
21360;SDS011;10839;43.206;23.550;2023-12-07T08:25:09;43.38;;;23.35;;
21360;SDS011;10839;43.206;23.550;2023-12-07T08:27:36;42.17;;;22.80;;
21360;SDS011;10839;43.206;23.550;2023-12-07T08:30:04;39.92;;;21.15;;
21360;SDS011;10839;43.206;23.550;2023-12-07T08:32:30;45.08;;;22.23;;
21360;SDS011;10839;43.206;23.550;2023-12-07T08:34:56;42.05;;;22.77;;
21360;SDS011;10839;43.206;23.550;2023-12-07T08:37:22;40.33;;;21.27;;
21360;SDS011;10839;43.206;23.550;2023-12-07T08:39:48;39.90;;;21.65;;
21360;SDS011;10839;43.206;23.550;2023-12-07T08:42:14;37.05;;;20.13;;
21360;SDS011;10839;43.206;23.550;2023-12-07T08:44:40;40.47;;;21.23;;
21360;SDS011;10839;43.206;23.550;2023-12-07T08:47:07;38.75;;;21.73;;
21360;SDS011;10839;43.206;23.550;2023-12-07T08:49:33;37.42;;;20.38;;
21360;SDS011;10839;43.206;23.550;2023-12-07T08:51:59;37.78;;;19.95;;
21360;SDS011;10839;43.206;23.550;2023-12-07T08:54:25;32.65;;;18.73;;
21360;SDS011;10839;43.206;23.550;2023-12-07T08:56:51;31.70;;;18.70;;
21360;SDS011;10839;43.206;23.550;2023-12-07T08:59:17;33.47;;;19.25;;
21360;SDS011;10839;43.206;23.550;2023-12-07T09:01:43;34.17;;;19.00;;
21360;SDS011;10839;43.206;23.550;2023-12-07T09:04:08;33.13;;;18.27;;
21360;SDS011;10839;43.206;23.550;2023-12-07T09:06:35;31.38;;;17.88;;
21360;SDS011;10839;43.206;23.550;2023-12-07T09:09:02;27.85;;;15.90;;
21360;SDS011;10839;43.206;23.550;2023-12-07T09:11:30;27.88;;;16.20;;
21360;SDS011;10839;43.206;23.550;2023-12-07T09:13:56;33.58;;;19.52;;
21360;SDS011;10839;43.206;23.550;2023-12-07T09:16:22;29.98;;;16.98;;
21360;SDS011;10839;43.206;23.550;2023-12-07T09:18:48;31.65;;;17.67;;
21360;SDS011;10839;43.206;23.550;2023-12-07T09:21:13;30.92;;;18.58;;
21360;SDS011;10839;43.206;23.550;2023-12-07T09:23:39;40.65;;;21.02;;
21360;SDS011;10839;43.206;23.550;2023-12-07T09:26:05;38.05;;;21.60;;
21360;SDS011;10839;43.206;23.550;2023-12-07T09:28:31;32.00;;;18.77;;
21360;SDS011;10839;43.206;23.550;2023-12-07T09:30:58;34.47;;;19.40;;
21360;SDS011;10839;43.206;23.550;2023-12-07T09:33:24;32.25;;;19.02;;
21360;SDS011;10839;43.206;23.550;2023-12-07T09:35:50;37.22;;;20.70;;
21360;SDS011;10839;43.206;23.550;2023-12-07T09:38:17;143.43;;;72.07;;
21360;SDS011;10839;43.206;23.550;2023-12-07T09:40:43;81.28;;;43.00;;
21360;SDS011;10839;43.206;23.550;2023-12-07T09:43:09;45.55;;;25.13;;
21360;SDS011;10839;43.206;23.550;2023-12-07T09:45:35;57.30;;;30.23;;
21360;SDS011;10839;43.206;23.550;2023-12-07T09:48:01;51.03;;;27.60;;
21360;SDS011;10839;43.206;23.550;2023-12-07T09:50:28;34.13;;;18.75;;
21360;SDS011;10839;43.206;23.550;2023-12-07T09:52:54;20.75;;;12.43;;
21360;SDS011;10839;43.206;23.550;2023-12-07T09:55:22;20.83;;;12.13;;
21360;SDS011;10839;43.206;23.550;2023-12-07T09:57:51;22.48;;;14.57;;
21360;SDS011;10839;43.206;23.550;2023-12-07T10:00:19;26.10;;;15.30;;
21360;SDS011;10839;43.206;23.550;2023-12-07T10:02:45;23.20;;;14.85;;
21360;SDS011;10839;43.206;23.550;2023-12-07T10:05:12;22.48;;;13.18;;
21360;SDS011;10839;43.206;23.550;2023-12-07T10:07:40;19.50;;;11.35;;
21360;SDS011;10839;43.206;23.550;2023-12-07T10:10:07;17.48;;;10.95;;
21360;SDS011;10839;43.206;23.550;2023-12-07T10:12:40;19.30;;;11.38;;
21360;SDS011;10839;43.206;23.550;2023-12-07T10:15:12;24.35;;;14.02;;
21360;SDS011;10839;43.206;23.550;2023-12-07T10:17:46;24.52;;;12.50;;
21360;SDS011;10839;43.206;23.550;2023-12-07T10:20:19;46.95;;;24.80;;
21360;SDS011;10839;43.206;23.550;2023-12-07T10:22:49;45.10;;;26.70;;
21360;SDS011;10839;43.206;23.550;2023-12-07T10:25:32;54.10;;;28.10;;
21360;SDS011;10839;43.206;23.550;2023-12-07T10:28:00;18.50;;;11.18;;
21360;SDS011;10839;43.206;23.550;2023-12-07T10:30:26;20.73;;;11.45;;
21360;SDS011;10839;43.206;23.550;2023-12-07T10:32:52;28.35;;;15.05;;
21360;SDS011;10839;43.206;23.550;2023-12-07T10:35:18;25.08;;;12.93;;
21360;SDS011;10839;43.206;23.550;2023-12-07T10:37:45;16.80;;;9.20;;
21360;SDS011;10839;43.206;23.550;2023-12-07T10:40:12;12.50;;;7.32;;
21360;SDS011;10839;43.206;23.550;2023-12-07T10:42:38;11.57;;;7.40;;
21360;SDS011;10839;43.206;23.550;2023-12-07T10:45:06;11.90;;;6.63;;
21360;SDS011;10839;43.206;23.550;2023-12-07T10:47:39;10.68;;;5.93;;
21360;SDS011;10839;43.206;23.550;2023-12-07T10:50:05;9.65;;;6.57;;
21360;SDS011;10839;43.206;23.550;2023-12-07T10:52:36;11.48;;;7.40;;
21360;SDS011;10839;43.206;23.550;2023-12-07T10:55:19;12.95;;;9.13;;
21360;SDS011;10839;43.206;23.550;2023-12-07T10:57:49;14.95;;;9.68;;
21360;SDS011;10839;43.206;23.550;2023-12-07T11:00:21;15.40;;;10.60;;
21360;SDS011;10839;43.206;23.550;2023-12-07T11:02:50;12.85;;;8.75;;
21360;SDS011;10839;43.206;23.550;2023-12-07T11:05:20;14.88;;;8.73;;
21360;SDS011;10839;43.206;23.550;2023-12-07T11:07:58;11.32;;;6.80;;
21360;SDS011;10839;43.206;23.550;2023-12-07T11:10:53;10.18;;;6.95;;
21360;SDS011;10839;43.206;23.550;2023-12-07T11:13:31;11.63;;;7.90;;
21360;SDS011;10839;43.206;23.550;2023-12-07T11:16:01;16.55;;;10.60;;
21360;SDS011;10839;43.206;23.550;2023-12-07T11:18:28;15.50;;;10.63;;
21360;SDS011;10839;43.206;23.550;2023-12-07T11:20:57;17.02;;;10.48;;
21360;SDS011;10839;43.206;23.550;2023-12-07T11:23:24;14.25;;;9.00;;
21360;SDS011;10839;43.206;23.550;2023-12-07T11:25:53;21.63;;;9.25;;
21360;SDS011;10839;43.206;23.550;2023-12-07T11:28:33;16.10;;;7.82;;
21360;SDS011;10839;43.206;23.550;2023-12-07T11:31:01;12.63;;;6.70;;
21360;SDS011;10839;43.206;23.550;2023-12-07T11:33:28;8.98;;;5.35;;
21360;SDS011;10839;43.206;23.550;2023-12-07T11:36:05;9.88;;;6.40;;
21360;SDS011;10839;43.206;23.550;2023-12-07T11:38:32;12.85;;;7.20;;
21360;SDS011;10839;43.206;23.550;2023-12-07T11:40:58;14.65;;;7.15;;
21360;SDS011;10839;43.206;23.550;2023-12-07T11:46:09;10.35;;;7.00;;
21360;SDS011;10839;43.206;23.550;2023-12-07T11:48:36;10.52;;;6.82;;
21360;SDS011;10839;43.206;23.550;2023-12-07T11:51:03;9.82;;;6.13;;
21360;SDS011;10839;43.206;23.550;2023-12-07T11:53:32;11.50;;;6.72;;
21360;SDS011;10839;43.206;23.550;2023-12-07T11:55:59;13.45;;;7.38;;
21360;SDS011;10839;43.206;23.550;2023-12-07T11:58:27;14.38;;;7.93;;
21360;SDS011;10839;43.206;23.550;2023-12-07T12:00:54;14.52;;;8.20;;
21360;SDS011;10839;43.206;23.550;2023-12-07T12:03:22;18.45;;;9.85;;
21360;SDS011;10839;43.206;23.550;2023-12-07T12:05:49;16.88;;;8.43;;
21360;SDS011;10839;43.206;23.550;2023-12-07T12:08:17;11.60;;;7.70;;
21360;SDS011;10839;43.206;23.550;2023-12-07T12:10:44;7.93;;;5.90;;
21360;SDS011;10839;43.206;23.550;2023-12-07T12:13:11;7.90;;;5.00;;
21360;SDS011;10839;43.206;23.550;2023-12-07T12:15:37;7.72;;;5.30;;
21360;SDS011;10839;43.206;23.550;2023-12-07T12:18:05;7.47;;;5.47;;
21360;SDS011;10839;43.206;23.550;2023-12-07T12:20:31;6.20;;;4.00;;
21360;SDS011;10839;43.206;23.550;2023-12-07T12:22:58;5.43;;;4.22;;
21360;SDS011;10839;43.206;23.550;2023-12-07T12:25:28;15.77;;;9.43;;
21360;SDS011;10839;43.206;23.550;2023-12-07T12:28:02;35.22;;;20.73;;
21360;SDS011;10839;43.206;23.550;2023-12-07T12:30:30;12.63;;;8.38;;
21360;SDS011;10839;43.206;23.550;2023-12-07T12:32:57;15.07;;;9.70;;
21360;SDS011;10839;43.206;23.550;2023-12-07T12:35:25;13.55;;;8.43;;
21360;SDS011;10839;43.206;23.550;2023-12-07T12:37:51;11.25;;;7.13;;
21360;SDS011;10839;43.206;23.550;2023-12-07T12:40:21;6.80;;;5.57;;
21360;SDS011;10839;43.206;23.550;2023-12-07T12:42:52;7.40;;;5.18;;
21360;SDS011;10839;43.206;23.550;2023-12-07T12:45:18;9.63;;;5.80;;
21360;SDS011;10839;43.206;23.550;2023-12-07T12:47:45;9.32;;;5.90;;
21360;SDS011;10839;43.206;23.550;2023-12-07T12:50:12;5.85;;;4.68;;
21360;SDS011;10839;43.206;23.550;2023-12-07T12:53:02;14.90;;;8.05;;
21360;SDS011;10839;43.206;23.550;2023-12-07T12:55:33;8.68;;;6.00;;
21360;SDS011;10839;43.206;23.550;2023-12-07T12:58:01;8.80;;;5.70;;
21360;SDS011;10839;43.206;23.550;2023-12-07T13:00:30;7.70;;;5.35;;
21360;SDS011;10839;43.206;23.550;2023-12-07T13:03:00;8.10;;;5.70;;
21360;SDS011;10839;43.206;23.550;2023-12-07T13:05:26;7.75;;;5.80;;
21360;SDS011;10839;43.206;23.550;2023-12-07T13:07:53;7.95;;;5.00;;
21360;SDS011;10839;43.206;23.550;2023-12-07T13:10:18;9.05;;;5.30;;
21360;SDS011;10839;43.206;23.550;2023-12-07T13:12:44;11.95;;;6.40;;
21360;SDS011;10839;43.206;23.550;2023-12-07T13:15:10;15.27;;;8.05;;
21360;SDS011;10839;43.206;23.550;2023-12-07T13:17:40;22.55;;;13.43;;
21360;SDS011;10839;43.206;23.550;2023-12-07T13:20:08;44.42;;;23.40;;
21360;SDS011;10839;43.206;23.550;2023-12-07T13:22:42;20.33;;;12.05;;
21360;SDS011;10839;43.206;23.550;2023-12-07T13:25:11;10.95;;;6.97;;
21360;SDS011;10839;43.206;23.550;2023-12-07T13:27:39;9.32;;;5.90;;
21360;SDS011;10839;43.206;23.550;2023-12-07T13:30:05;9.73;;;6.25;;
21360;SDS011;10839;43.206;23.550;2023-12-07T13:32:32;8.88;;;6.40;;
21360;SDS011;10839;43.206;23.550;2023-12-07T13:34:59;16.42;;;9.43;;
21360;SDS011;10839;43.206;23.550;2023-12-07T13:37:26;18.25;;;10.85;;
21360;SDS011;10839;43.206;23.550;2023-12-07T13:39:52;16.13;;;9.25;;
21360;SDS011;10839;43.206;23.550;2023-12-07T13:42:26;10.13;;;5.43;;
21360;SDS011;10839;43.206;23.550;2023-12-07T13:44:56;6.90;;;5.50;;
21360;SDS011;10839;43.206;23.550;2023-12-07T13:47:26;10.98;;;6.75;;
21360;SDS011;10839;43.206;23.550;2023-12-07T13:49:57;16.65;;;9.57;;
21360;SDS011;10839;43.206;23.550;2023-12-07T13:52:23;11.40;;;7.38;;
21360;SDS011;10839;43.206;23.550;2023-12-07T13:54:49;12.00;;;7.65;;
21360;SDS011;10839;43.206;23.550;2023-12-07T13:57:15;11.23;;;7.70;;
21360;SDS011;10839;43.206;23.550;2023-12-07T13:59:41;10.18;;;7.05;;
21360;SDS011;10839;43.206;23.550;2023-12-07T14:02:07;12.68;;;7.88;;
21360;SDS011;10839;43.206;23.550;2023-12-07T14:04:33;50.13;;;26.60;;
21360;SDS011;10839;43.206;23.550;2023-12-07T14:07:06;59.40;;;31.15;;
21360;SDS011;10839;43.206;23.550;2023-12-07T14:09:34;21.80;;;13.20;;
21360;SDS011;10839;43.206;23.550;2023-12-07T14:12:00;13.98;;;7.15;;
21360;SDS011;10839;43.206;23.550;2023-12-07T14:14:25;16.15;;;7.57;;